Latest Weather Observations for Canterbury

IDN60901

Issued at 8:15 pm EST Wednesday 16 April 2014 (issued every 10 minutes, with the page automatically refreshed every 10 minutes)

About weather observations | Map of Sydney area stations | Latest observations for Sydney area | Other Formats
Station Details ID: 066194 Name: CANTERBURY RACECOURSE AWS Lat: -33.91 Lon: 151.11 Height: 3.0 m
Data from the previous 72 hours. | See also: Recent months at Canterbury
Date/Time
EST
Tmp

°C
App
Tmp
°C
Dew
Point
°C
Rel
Hum
%
Delta-T

°C
Wind Press
QNH
hPa
Press
MSL
hPa
Rain
since
9 am
mm
Dir
 
Spd
km/h
Gust
km/h
Spd
kts
Gust
kts
16/08:00pm 17.7 16.7 12.2 70 3.0 W 9 13 5 7 - - 0.0
16/07:30pm 18.4 17.7 11.9 66 3.6 SSW 7 13 4 7 - - 0.0
16/07:00pm 18.5 17.6 12.7 69 3.2 S 9 15 5 8 - - 0.0
16/06:30pm 18.8 17.2 12.8 68 3.4 S 13 22 7 12 - - 0.0
16/06:00pm 18.9 17.6 12.4 66 3.6 S 11 20 6 11 - - 0.0
16/05:30pm 19.3 16.7 12.1 63 4.0 S 17 28 9 15 - - 0.0
16/05:00pm 19.8 17.4 12.6 63 4.0 SSW 17 28 9 15 - - 0.0
16/04:30pm 20.3 17.3 11.8 58 4.7 SSW 19 28 10 15 - - 0.0
16/04:00pm 20.6 16.6 11.8 57 4.9 S 24 33 13 18 - - 0.0
16/03:30pm 21.1 17.9 12.0 56 5.1 S 20 32 11 17 - - 0.0
16/03:00pm 21.1 18.0 11.7 55 5.2 SSW 19 30 10 16 - - 0.0
16/02:30pm 20.4 18.5 11.9 58 4.7 SSW 13 20 7 11 - - 0.0
16/02:00pm 21.1 18.1 12.0 56 5.1 S 19 33 10 18 - - 0.0
16/01:30pm 21.2 18.0 11.8 55 5.2 S 20 33 11 18 - - 0.0
16/01:00pm 21.2 18.3 12.3 57 5.0 SW 19 30 10 16 - - 0.0
16/12:30pm 21.2 18.2 12.6 58 4.9 S 20 32 11 17 - - 0.0
16/12:00pm 20.8 18.0 12.5 59 4.7 SSW 19 32 10 17 - - 0.0
16/11:30am 20.7 17.9 12.7 60 4.5 WSW 19 30 10 16 - - 0.0
16/11:00am 19.9 17.4 12.2 61 4.3 SW 17 28 9 15 - - 0.0
16/10:30am 19.7 17.6 12.5 63 4.0 W 15 22 8 12 - - 0.0
16/10:00am 19.3 17.3 11.6 61 4.2 WSW 13 20 7 11 - - 0.0
16/09:30am 19.2 17.4 13.2 68 3.4 W 15 22 8 12 - - 0.0
16/09:00am 17.9 15.8 11.2 65 3.6 W 13 20 7 11 - - 6.6
16/08:30am 16.9 14.7 10.7 67 3.3 W 13 20 7 11 - - 6.6
16/08:00am 16.4 14.3 11.1 71 2.8 W 13 20 7 11 - - 6.6
16/07:30am 15.7 14.0 11.1 74 2.5 W 11 20 6 11 - - 6.6
16/07:00am 14.7 13.2 10.7 77 2.1 W 9 13 5 7 - - 6.6
16/06:30am 14.1 12.7 10.9 81 1.7 W 9 13 5 7 - - 6.6
16/06:00am 14.0 12.6 10.8 81 1.7 WNW 9 13 5 7 - - 6.6
16/05:30am 13.9 13.1 10.9 82 1.6 WNW 6 9 3 5 - - 6.6
16/05:00am 14.2 13.2 11.0 81 1.7 WNW 7 11 4 6 - - 6.6
16/04:30am 14.2 12.5 11.2 82 1.6 WNW 11 17 6 9 - - 6.6
16/04:00am 14.2 12.9 11.4 83 1.5 W 9 11 5 6 - - 6.6
16/03:30am 14.4 13.6 11.6 83 1.5 WNW 7 9 4 5 - - 6.6
16/03:00am 14.8 14.0 11.8 82 1.6 W 7 9 4 5 - - 6.6
16/02:30am 14.8 13.7 11.9 83 1.6 W 9 13 5 7 - - 6.6
16/02:00am 15.2 14.1 12.1 82 1.7 WNW 9 13 5 7 - - 6.6
16/01:30am 15.9 14.6 12.5 80 1.9 SW 11 17 6 9 - - 6.6
16/01:00am 15.5 14.6 12.6 83 1.6 SW 9 17 5 9 - - 6.6
16/12:30am 15.7 15.4 13.2 85 1.4 WSW 7 9 4 5 - - 6.6
16/12:00am 15.4 14.8 13.6 89 1.0 W 9 20 5 11 - - 6.6
 
Date/Time
EST
Tmp

°C
App
Tmp
°C
Dew
Point
°C
Rel
Hum
%
Delta-T

°C
Wind Press
QNH
hPa
Press
MSL
hPa
Rain
since
9 am
mm
Dir
 
Spd
km/h
Gust
km/h
Spd
kts
Gust
kts
15/11:30pm 15.8 16.0 14.3 91 0.9 WSW 6 9 3 5 - - 6.4
15/11:19pm 15.8 15.8 14.2 90 0.9 SW 7 13 4 7 - - 6.4
15/11:00pm 15.9 15.5 14.1 89 1.0 SW 9 15 5 8 - - 6.4
15/10:59pm 15.9 15.6 14.3 90 0.9 SW 9 15 5 8 - - 6.2
15/10:53pm 15.9 15.5 14.1 89 1.0 SW 9 15 5 8 - - 5.8
15/10:30pm 16.3 15.3 14.7 90 0.9 SW 13 24 7 13 - - 5.2
15/10:15pm 16.1 15.5 14.5 90 0.9 WSW 11 17 6 9 - - 5.0
15/10:00pm 16.1 15.5 14.5 90 0.9 W 11 17 6 9 - - 4.8
15/09:30pm 16.4 15.8 14.6 89 1.0 WSW 11 17 6 9 - - 4.8
15/09:11pm 16.5 16.3 14.7 89 1.0 W 9 15 5 8 - - 4.6
15/09:00pm 16.5 15.9 14.7 89 1.0 WSW 11 17 6 9 - - 4.6
15/08:57pm 16.5 15.9 14.5 88 1.1 SW 11 19 6 10 - - 4.6
15/08:30pm 16.4 16.1 14.4 88 1.1 WSW 9 15 5 8 - - 4.2
15/08:00pm 16.4 15.7 14.4 88 1.1 WSW 11 19 6 10 - - 4.0
15/07:30pm 16.4 14.9 14.1 86 1.3 SW 15 24 8 13 - - 4.0
15/07:00pm 16.3 14.4 14.1 87 1.2 SW 17 24 9 13 - - 4.0
15/06:57pm 16.3 14.4 14.1 87 1.2 SW 17 24 9 13 - - 4.0
15/06:31pm 16.7 15.7 14.7 88 1.1 SSW 13 20 7 11 - - 3.6
15/06:30pm 16.7 15.7 14.7 88 1.1 SSW 13 20 7 11 - - 3.6
15/06:00pm 16.9 15.2 14.7 87 1.3 SSW 17 26 9 14 - - 3.6
15/05:54pm 16.8 15.1 14.8 88 1.2 S 17 26 9 14 - - 3.6
15/05:39pm 17.0 15.1 15.2 89 1.0 S 19 32 10 17 - - 3.6
15/05:30pm 17.0 16.5 14.8 87 1.3 S 11 17 6 9 - - 3.4
15/05:14pm 16.8 15.6 15.0 89 1.0 S 15 24 8 13 - - 3.4
15/05:00pm 16.6 16.0 14.6 88 1.1 S 11 30 6 16 - - 3.4
15/04:39pm 17.9 17.5 15.3 85 1.5 S 11 15 6 8 - - 0.6
15/04:30pm 17.7 17.6 15.0 84 1.6 S 9 13 5 7 - - 0.4
15/04:00pm 17.6 16.1 15.4 87 1.3 S 17 28 9 15 - - 0.4
15/03:59pm 17.6 16.1 15.4 87 1.3 S 17 28 9 15 - - 0.4
15/03:30pm 18.2 15.1 14.5 79 2.1 SSW 24 37 13 20 - - 0.4
15/03:26pm 18.4 15.6 14.3 77 2.4 S 22 37 12 20 - - 0.2
15/03:00pm 20.9 18.2 12.8 60 4.6 S 19 30 10 16 - - 0.0
15/02:30pm 21.0 16.9 10.2 50 5.8 S 22 37 12 20 - - 0.0
15/02:00pm 21.2 17.8 10.7 51 5.7 S 19 28 10 15 - - 0.0
15/01:30pm 20.9 16.9 8.9 46 6.3 S 20 30 11 16 - - 0.0
15/01:00pm 21.0 16.0 6.5 39 7.3 SW 22 30 12 16 - - 0.0
15/12:30pm 21.0 16.6 6.5 39 7.3 S 19 32 10 17 - - 0.0
15/12:00pm 21.2 17.4 7.4 41 7.1 SSW 17 28 9 15 - - 0.0
15/11:30am 21.1 17.0 7.7 42 6.9 S 19 28 10 15 - - 0.0
15/11:00am 20.2 17.2 7.6 44 6.5 SSW 13 19 7 10 - - 0.0
15/10:30am 19.6 16.9 8.9 50 5.6 SSW 13 20 7 11 - - 0.0
15/10:00am 19.5 17.7 10.8 57 4.7 WSW 11 19 6 10 - - 0.0
15/09:30am 18.0 15.3 9.1 56 4.6 W 13 17 7 9 - - 0.0
15/09:00am 17.3 14.2 9.0 58 4.3 WNW 15 19 8 10 - - 1.0
15/08:30am 17.0 14.7 10.6 66 3.4 W 13 20 7 11 - - 1.0
15/08:00am 15.7 13.4 8.9 64 3.5 W 11 17 6 9 - - 1.0
15/07:30am 14.4 12.0 8.8 69 2.8 W 11 17 6 9 - - 1.0
15/07:00am 13.3 11.5 9.5 78 1.9 W 9 15 5 8 - - 1.0
15/06:30am 12.9 11.1 9.5 80 1.7 W 9 15 5 8 - - 1.0
15/06:00am 12.7 11.4 9.9 83 1.4 W 7 13 4 7 - - 1.0
15/05:30am 12.4 11.3 9.8 84 1.3 NW 6 9 3 5 - - 1.0
15/05:00am 12.6 11.4 9.6 82 1.5 NW 6 7 3 4 - - 1.0
15/04:30am 13.1 11.9 9.7 80 1.7 W 6 9 3 5 - - 1.0
15/04:00am 13.5 12.1 9.7 78 1.9 W 7 13 4 7 - - 1.0
15/03:30am 13.8 12.1 9.8 77 2.1 WNW 9 13 5 7 - - 1.0
15/03:00am 14.2 12.6 10.2 77 2.1 W 9 13 5 7 - - 1.0
15/02:30am 14.0 14.1 10.0 77 2.1 CALM 0 6 0 3 - - 1.0
15/02:00am 14.9 13.1 10.7 76 2.2 W 11 17 6 9 - - 1.0
15/01:43am 15.5 15.7 13.0 85 1.4 SW 4 13 2 7 - - 1.0
15/01:30am 15.8 16.0 13.1 84 1.5 SSW 4 9 2 5 - - 0.8
15/01:24am 15.5 16.2 12.3 81 1.7 CALM 0 6 0 3 - - 0.8
15/01:00am 15.3 14.0 11.1 76 2.2 W 9 13 5 7 - - 0.4
15/12:30am 15.4 14.8 11.6 78 2.0 W 6 7 3 4 - - 0.4
15/12:00am 15.5 15.1 11.1 75 2.3 W 4 9 2 5 - - 0.4
 
Date/Time
EST
Tmp

°C
App
Tmp
°C
Dew
Point
°C
Rel
Hum
%
Delta-T

°C
Wind Press
QNH
hPa
Press
MSL
hPa
Rain
since
9 am
mm
Dir
 
Spd
km/h
Gust
km/h
Spd
kts
Gust
kts
14/11:30pm 15.4 14.8 11.6 78 2.0 WNW 6 13 3 7 - - 0.4
14/11:00pm 15.6 15.1 12.0 79 2.0 NW 6 9 3 5 - - 0.4
14/10:30pm 16.3 14.9 12.3 77 2.2 W 11 17 6 9 - - 0.2
14/10:00pm 16.7 16.1 12.3 75 2.4 W 7 11 4 6 - - 0.2
14/09:30pm 16.7 16.3 12.3 75 2.4 WNW 6 9 3 5 - - 0.2
14/09:00pm 16.8 16.4 12.9 78 2.2 SW 7 9 4 5 - - 0.2
14/08:30pm 16.6 17.5 12.9 79 2.1 CALM 0 4 0 2 - - 0.2
14/08:00pm 16.6 16.2 12.9 79 2.1 SW 7 13 4 7 - - 0.2
14/07:30pm 16.6 15.9 13.1 80 2.0 SW 9 15 5 8 - - 0.2
14/07:00pm 16.4 15.7 13.3 82 1.7 WSW 9 11 5 6 - - 0.2
14/06:57pm 16.4 15.7 13.3 82 1.7 WSW 9 13 5 7 - - 0.0
14/06:40pm 16.8 14.9 12.9 78 2.2 SSW 15 22 8 12 - - 0.0
14/06:30pm 17.4 15.7 12.5 73 2.7 SSW 13 24 7 13 - - 0.0
14/06:00pm 17.8 15.7 12.3 70 3.0 SW 15 24 8 13 - - 0.0
14/05:30pm 17.8 16.4 12.3 70 3.0 SSW 11 19 6 10 - - 0.0
14/05:00pm 18.3 16.1 12.1 67 3.4 SW 15 32 8 17 - - 0.0
14/04:30pm 18.9 17.0 12.9 68 3.4 SW 15 26 8 14 - - 0.0
14/04:00pm 19.0 17.3 12.3 65 3.7 SW 13 17 7 9 - - 0.0
14/03:30pm 18.9 16.7 13.3 70 3.2 SSW 17 24 9 13 - - 0.0
14/03:00pm 18.9 16.4 12.2 65 3.7 SSW 17 26 9 14 - - 0.0
14/02:30pm 18.8 16.0 13.2 70 3.2 SSW 20 32 11 17 - - 0.0
14/02:00pm 19.1 16.5 13.7 71 3.1 S 20 32 11 17 - - 0.0
14/01:30pm 19.2 17.2 14.0 72 3.0 S 17 30 9 16 - - 0.0
14/01:00pm 18.4 15.8 13.9 75 2.6 S 20 32 11 17 - - 0.0
14/12:39pm 18.2 16.9 14.9 81 1.9 SSW 15 24 8 13 - - 0.0
14/12:30pm 17.5 16.6 14.8 84 1.6 SSW 13 24 7 13 - - 0.0
14/12:13pm 17.5 14.5 13.8 79 2.1 S 22 33 12 18 - - 0.0
14/12:00pm 19.4 16.6 12.7 65 3.8 SSW 19 28 10 15 - - 0.0
14/11:30am 19.6 17.2 12.8 65 3.8 SSW 17 28 9 15 - - 0.0
14/11:00am 19.0 16.2 13.2 69 3.3 SSW 20 33 11 18 - - 0.0
14/10:30am 18.7 15.7 12.0 65 3.7 SW 19 28 10 15 - - 0.0
14/10:00am 18.2 15.7 12.2 68 3.3 SSW 17 28 9 15 - - 0.0
14/09:30am 18.6 17.5 12.1 66 3.6 WSW 9 15 5 8 - - 0.0
14/09:00am 16.6 14.2 8.8 60 4.0 W 11 15 6 8 - - 0.4
14/08:30am 15.9 12.5 7.7 58 4.1 WNW 15 22 8 12 - - 0.4
14/08:00am 14.9 13.5 8.8 67 3.1 WNW 6 7 3 4 - - 0.4
14/07:30am 13.5 10.5 7.5 67 2.9 W 13 19 7 10 - - 0.4
14/07:00am 12.6 9.6 7.5 71 2.5 W 13 20 7 11 - - 0.4
14/06:30am 11.8 10.9 7.9 77 1.9 WNW 2 7 1 4 - - 0.4
14/06:00am 11.8 10.1 8.3 79 1.7 WNW 7 13 4 7 - - 0.4
14/05:30am 11.7 10.8 9.1 84 1.3 WNW 4 6 2 3 - - 0.4
14/05:00am 12.1 11.5 9.1 82 1.5 NW 2 6 1 3 - - 0.4
14/04:30am 12.8 11.6 9.4 80 1.7 W 6 9 3 5 - - 0.4
14/04:00am 13.2 12.3 9.3 77 2.0 W 4 9 2 5 - - 0.4
14/03:30am 13.7 12.3 9.7 77 2.1 W 7 13 4 7 - - 0.4
14/03:00am 14.1 11.7 9.9 76 2.2 W 13 20 7 11 - - 0.4
14/02:30am 14.4 11.6 10.0 75 2.3 WSW 15 24 8 13 - - 0.4
14/02:00am 14.5 12.5 10.3 76 2.2 WSW 11 17 6 9 - - 0.4
14/01:30am 14.4 12.0 10.0 75 2.3 W 13 19 7 10 - - 0.4
14/01:00am 14.9 12.5 10.1 73 2.5 W 13 17 7 9 - - 0.4
14/12:30am 15.4 13.0 10.0 70 2.8 W 13 19 7 10 - - 0.4
14/12:00am 15.7 13.7 10.0 69 3.0 WNW 11 17 6 9 - - 0.4
 
Date/Time
EST
Tmp

°C
App
Tmp
°C
Dew
Point
°C
Rel
Hum
%
Delta-T

°C
Wind Press
QNH
hPa
Press
MSL
hPa
Rain
since
9 am
mm
Dir
 
Spd
km/h
Gust
km/h
Spd
kts
Gust
kts
13/11:30pm 15.8 14.2 10.1 69 3.0 WNW 9 13 5 7 - - 0.4
13/11:00pm 15.9 14.2 10.0 68 3.1 WNW 9 15 5 8 - - 0.4
13/10:30pm 16.1 14.4 10.0 67 3.2 WNW 9 15 5 8 - - 0.4
13/10:00pm 16.1 14.4 10.0 67 3.2 WNW 9 15 5 8 - - 0.4
13/09:30pm 16.3 14.5 9.5 64 3.5 W 9 13 5 7 - - 0.4
13/09:00pm 16.7 15.3 9.6 63 3.7 W 7 11 4 6 - - 0.4
13/08:30pm 17.6 15.9 10.0 61 4.0 WSW 9 13 5 7 - - 0.4

Latest Capital City Observations: Canberra | Sydney | Melbourne | Brisbane | Adelaide | Perth | Hobart | Darwin

Other Formats:

Comma delimited format used in spreadsheet applications
http://www.bom.gov.au/fwo/IDN60901/IDN60901.94766.axf

JavaScript Object Notation format (JSON) in row-major order
http://www.bom.gov.au/fwo/IDN60901/IDN60901.94766.json